Time;durP1;ratioP1;P1;durP2;ratioP2;P2;SDS_P1;SDS_P2;PMS_P1;PMS_P2;Temp;Humidity;BMP_temperature;BMP_pressure;BME280_temperature;BME280_humidity;BME280_pressure;Samples;Min_cycle;Max_cycle;Signal;HPM_P1;HPM_P2
2022/03/06 00:01:22;;;;;;;29.40;19.50;;;4.30;85.90;;;;;;5030786;28;20226;-78
2022/03/06 00:03:49;;;;;;;27.50;19.17;;;4.10;86.00;;;;;;5008454;28;20218;-79
2022/03/06 00:06:17;;;;;;;27.97;18.83;;;4.00;87.50;;;;;;5013487;28;20205;-78
2022/03/06 00:08:45;;;;;;;28.23;19.10;;;4.00;88.70;;;;;;5006491;28;20194;-77
2022/03/06 00:11:12;;;;;;;27.00;18.47;;;4.00;88.60;;;;;;5008154;28;20701;-78
2022/03/06 00:13:41;;;;;;;29.57;19.87;;;4.10;88.80;;;;;;5015374;28;20214;-78
2022/03/06 00:16:08;;;;;;;25.37;18.30;;;4.10;89.00;;;;;;5011815;28;20208;-78
2022/03/06 00:18:37;;;;;;;26.83;17.93;;;4.20;89.00;;;;;;5021078;28;20204;-78
2022/03/06 00:21:05;;;;;;;25.33;18.83;;;4.20;88.50;;;;;;5015362;28;20224;-78
2022/03/06 00:23:32;;;;;;;26.97;19.07;;;4.30;88.90;;;;;;5014385;28;20227;-78
2022/03/06 00:25:59;;;;;;;24.50;17.90;;;4.30;88.30;;;;;;5010621;28;20205;-78
2022/03/06 00:28:27;;;;;;;26.73;18.87;;;4.00;88.80;;;;;;5012831;28;20197;-78
2022/03/06 00:30:56;;;;;;;25.33;18.53;;;3.70;90.30;;;;;;5030594;28;20643;-78
2022/03/06 00:33:23;;;;;;;24.20;18.23;;;3.70;91.00;;;;;;5007246;28;20669;-77
2022/03/06 00:35:51;;;;;;;26.13;18.83;;;3.40;91.60;;;;;;5011790;28;20205;-77
2022/03/06 00:38:18;;;;;;;27.37;19.17;;;3.20;92.80;;;;;;5010674;28;20223;-78
2022/03/06 00:40:46;;;;;;;26.87;18.17;;;3.30;94.00;;;;;;5009040;28;20604;-78
2022/03/06 00:43:15;;;;;;;26.00;18.20;;;3.40;93.50;;;;;;5013306;28;20200;-77
2022/03/06 00:45:43;;;;;;;27.80;19.30;;;3.50;93.80;;;;;;5006994;28;20192;-77
2022/03/06 00:48:11;;;;;;;28.50;18.97;;;3.60;93.30;;;;;;5011695;28;20211;-77
2022/03/06 00:50:40;;;;;;;28.47;19.30;;;3.50;93.00;;;;;;5013813;28;20228;-77
2022/03/06 00:53:08;;;;;;;30.27;19.50;;;3.40;93.40;;;;;;5001683;28;20203;-78
2022/03/06 00:55:35;;;;;;;27.47;19.10;;;3.40;93.70;;;;;;5011020;28;20204;-78
2022/03/06 00:58:06;;;;;;;27.97;19.83;;;3.40;93.70;;;;;;5012249;28;20200;-78
2022/03/06 01:00:35;;;;;;;30.93;20.77;;;3.20;94.50;;;;;;5015235;28;20225;-78
2022/03/06 01:03:04;;;;;;;28.13;19.40;;;3.30;94.90;;;;;;5017728;28;20195;-78
2022/03/06 01:05:33;;;;;;;26.07;18.80;;;3.30;94.50;;;;;;5011856;28;20242;-78
2022/03/06 01:08:00;;;;;;;25.93;19.73;;;3.10;94.60;;;;;;5026997;28;20219;-78
2022/03/06 01:10:28;;;;;;;27.47;20.60;;;3.10;95.20;;;;;;5007455;28;20713;-78
2022/03/06 01:12:55;;;;;;;29.83;19.30;;;3.10;95.30;;;;;;5030735;28;20199;-77
2022/03/06 01:15:23;;;;;;;25.73;19.33;;;3.00;95.70;;;;;;5029642;28;20681;-77
2022/03/06 01:17:51;;;;;;;31.73;20.90;;;3.00;96.20;;;;;;5012585;28;20209;-78
2022/03/06 01:20:19;;;;;;;29.57;19.53;;;2.80;96.20;;;;;;5010155;28;20215;-78
2022/03/06 01:22:48;;;;;;;29.37;20.43;;;3.00;96.40;;;;;;5002317;28;20212;-78
2022/03/06 01:25:15;;;;;;;28.40;20.53;;;2.90;96.40;;;;;;5009211;28;20212;-77
2022/03/06 01:27:43;;;;;;;33.23;22.97;;;2.80;96.50;;;;;;5013250;28;20203;-77
2022/03/06 01:30:12;;;;;;;34.70;23.17;;;2.90;96.80;;;;;;5013769;28;20231;-77
2022/03/06 01:32:40;;;;;;;33.90;24.80;;;2.90;96.50;;;;;;5001764;28;20256;-77
2022/03/06 01:35:08;;;;;;;33.67;23.17;;;2.90;96.60;;;;;;5028071;28;20200;-77
2022/03/06 01:37:36;;;;;;;30.83;20.23;;;3.10;96.20;;;;;;5012768;28;20201;-77
2022/03/06 01:40:05;;;;;;;27.47;18.40;;;3.10;96.30;;;;;;5006660;28;20223;-78
2022/03/06 01:42:33;;;;;;;26.40;17.97;;;3.00;95.60;;;;;;5028931;28;20202;-78
2022/03/06 01:45:01;;;;;;;25.47;18.57;;;2.90;96.00;;;;;;5002347;28;20226;-78
2022/03/06 01:47:33;;;;;;;29.63;20.30;;;3.00;96.00;;;;;;5024938;28;20370;-78
2022/03/06 01:50:00;;;;;;;31.27;20.63;;;3.00;96.00;;;;;;5012650;28;20226;-78
2022/03/06 01:52:27;;;;;;;28.80;19.73;;;2.90;95.90;;;;;;5018115;28;20194;-78
2022/03/06 01:54:55;;;;;;;32.97;19.40;;;2.80;96.10;;;;;;5031873;28;20217;-78
2022/03/06 01:57:24;;;;;;;25.70;18.13;;;2.80;96.50;;;;;;5012638;28;20208;-78
2022/03/06 01:59:51;;;;;;;27.63;19.00;;;2.70;96.40;;;;;;5029447;28;20557;-77
2022/03/06 02:02:19;;;;;;;23.63;17.47;;;2.70;96.80;;;;;;5029329;28;20207;-77
2022/03/06 02:04:47;;;;;;;26.43;17.63;;;2.80;96.80;;;;;;5016263;28;20219;-77
2022/03/06 02:07:14;;;;;;;25.63;18.23;;;2.70;96.50;;;;;;5027938;28;20202;-77
2022/03/06 02:09:42;;;;;;;25.83;17.87;;;2.70;96.70;;;;;;5023710;28;20202;-77
2022/03/06 02:12:25;;;;;;;24.83;16.90;;;2.90;96.50;;;;;;5012538;28;20198;-77
2022/03/06 02:14:55;;;;;;;25.23;17.90;;;2.90;95.90;;;;;;5009645;28;20209;-77
2022/03/06 02:17:23;;;;;;;26.90;19.17;;;2.90;96.00;;;;;;5012292;28;20204;-78
2022/03/06 02:19:56;;;;;;;25.63;18.20;;;2.90;95.90;;;;;;5024063;28;20226;-78
2022/03/06 02:22:27;;;;;;;25.43;18.00;;;2.90;95.90;;;;;;5011618;28;20559;-78
2022/03/06 02:24:54;;;;;;;26.60;17.40;;;2.90;95.80;;;;;;5010453;28;20209;-77
2022/03/06 02:27:22;;;;;;;25.00;17.13;;;2.90;95.70;;;;;;5030514;28;20657;-77
2022/03/06 02:29:50;;;;;;;26.23;16.77;;;3.00;95.60;;;;;;5024788;28;20237;-77
2022/03/06 02:32:19;;;;;;;24.40;17.07;;;2.90;95.20;;;;;;5013884;28;20203;-78
2022/03/06 02:34:48;;;;;;;24.87;16.97;;;2.90;95.40;;;;;;5011371;28;20209;-77
2022/03/06 02:37:18;;;;;;;25.70;16.63;;;2.70;95.40;;;;;;5023301;28;20193;-77
2022/03/06 02:39:48;;;;;;;26.20;17.63;;;2.60;95.80;;;;;;5012308;28;20213;-77
2022/03/06 02:42:25;;;;;;;24.33;17.23;;;2.70;96.20;;;;;;5025493;28;20205;-77
2022/03/06 02:44:52;;;;;;;24.63;16.83;;;2.80;95.70;;;;;;5017722;28;20225;-77
2022/03/06 02:47:20;;;;;;;24.77;17.53;;;3.00;95.50;;;;;;5014223;28;20213;-78
2022/03/06 02:49:47;;;;;;;22.93;16.13;;;3.10;95.00;;;;;;5005655;28;20251;-79
2022/03/06 02:52:15;;;;;;;27.57;17.37;;;3.00;95.10;;;;;;5014450;28;20199;-78
2022/03/06 02:54:42;;;;;;;24.13;17.40;;;3.00;95.20;;;;;;5016276;28;20199;-78
2022/03/06 02:57:12;;;;;;;24.20;17.63;;;3.00;95.00;;;;;;5032741;28;20665;-78
2022/03/06 02:59:40;;;;;;;25.20;17.50;;;3.40;95.00;;;;;;5015697;28;20210;-78
2022/03/06 03:02:08;;;;;;;26.47;17.37;;;3.50;94.60;;;;;;5035762;28;20211;-78
2022/03/06 03:04:38;;;;;;;22.63;17.13;;;3.50;94.50;;;;;;5012345;28;20558;-78
2022/03/06 03:07:07;;;;;;;26.73;18.17;;;3.30;94.30;;;;;;5020503;28;20199;-78
2022/03/06 03:09:35;;;;;;;28.60;18.20;;;2.90;94.50;;;;;;5006880;28;20677;-77
2022/03/06 03:12:04;;;;;;;28.63;19.00;;;2.80;95.10;;;;;;5007041;28;20205;-77
2022/03/06 03:14:33;;;;;;;24.60;17.30;;;2.70;95.40;;;;;;5014827;28;20206;-78
2022/03/06 03:17:04;;;;;;;25.77;18.00;;;2.60;95.70;;;;;;5013264;28;20206;-78
2022/03/06 03:19:32;;;;;;;25.70;17.93;;;2.60;95.90;;;;;;5014207;28;20207;-78
2022/03/06 03:22:00;;;;;;;26.20;17.27;;;2.60;96.10;;;;;;5043691;28;20203;-78
2022/03/06 03:24:27;;;;;;;23.07;16.57;;;2.80;96.20;;;;;;5030897;28;20198;-78
2022/03/06 03:26:55;;;;;;;24.27;17.50;;;3.10;96.50;;;;;;5003108;28;20228;-78
2022/03/06 03:29:22;;;;;;;21.33;16.27;;;3.50;95.30;;;;;;5002295;28;20203;-78
2022/03/06 03:31:51;;;;;;;26.47;17.27;;;3.50;95.00;;;;;;5030908;28;20580;-78
2022/03/06 03:34:18;;;;;;;25.07;16.27;;;3.50;94.60;;;;;;5030523;28;20199;-78
2022/03/06 03:36:46;;;;;;;24.67;16.67;;;3.50;95.00;;;;;;5009305;28;20195;-78
2022/03/06 03:39:13;;;;;;;23.50;16.87;;;3.70;94.60;;;;;;5012614;28;20204;-78
2022/03/06 03:41:41;;;;;;;22.80;16.93;;;3.70;94.40;;;;;;5021356;28;20246;-78
2022/03/06 03:44:08;;;;;;;24.10;17.70;;;3.80;94.60;;;;;;5010707;28;20207;-78
2022/03/06 03:46:36;;;;;;;22.13;16.33;;;3.70;94.50;;;;;;5016523;28;20229;-78
2022/03/06 03:49:04;;;;;;;23.73;17.80;;;3.40;93.80;;;;;;5031917;28;20653;-78
2022/03/06 03:51:32;;;;;;;22.43;17.13;;;3.40;93.90;;;;;;5014864;28;20229;-77
2022/03/06 03:53:59;;;;;;;25.73;17.53;;;3.10;94.20;;;;;;5018085;28;20210;-79
2022/03/06 03:56:27;;;;;;;22.23;16.50;;;3.00;94.60;;;;;;5012693;28;20201;-79
2022/03/06 03:58:54;;;;;;;22.80;16.80;;;3.10;94.90;;;;;;5012426;28;20206;-78
2022/03/06 04:01:22;;;;;;;23.07;16.83;;;3.30;94.50;;;;;;5013019;28;20472;-79
2022/03/06 04:03:49;;;;;;;20.97;16.70;;;3.30;94.40;;;;;;5013976;28;20197;-79
2022/03/06 04:06:28;;;;;;;26.17;18.47;;;3.20;94.50;;;;;;5031494;28;20207;-79
2022/03/06 04:08:56;;;;;;;22.60;17.53;;;3.30;94.40;;;;;;5024155;28;20647;-79
2022/03/06 04:11:23;;;;;;;23.87;18.00;;;3.20;94.30;;;;;;5037595;28;20214;-80
2022/03/06 04:13:51;;;;;;;23.63;17.40;;;3.00;94.50;;;;;;5001766;28;20191;-79
2022/03/06 04:16:18;;;;;;;25.63;18.17;;;2.80;94.70;;;;;;5011866;28;20202;-79
2022/03/06 04:18:45;;;;;;;24.60;17.77;;;2.70;94.90;;;;;;5019783;28;20209;-80
2022/03/06 04:21:13;;;;;;;21.97;16.77;;;2.70;95.20;;;;;;5015492;28;20225;-79
2022/03/06 04:23:42;;;;;;;24.70;17.03;;;2.60;95.80;;;;;;5014612;28;20198;-78
2022/03/06 04:26:09;;;;;;;24.30;17.50;;;2.60;95.80;;;;;;5023189;28;20211;-78
2022/03/06 04:28:36;;;;;;;23.63;17.57;;;2.60;96.30;;;;;;5015732;28;20207;-78
2022/03/06 04:31:04;;;;;;;23.07;16.73;;;2.60;96.30;;;;;;5014462;28;20241;-78
2022/03/06 04:33:31;;;;;;;24.73;18.07;;;2.90;96.30;;;;;;5037331;28;20221;-78
2022/03/06 04:35:58;;;;;;;23.47;16.47;;;2.70;96.10;;;;;;5031524;28;20205;-78
2022/03/06 04:38:26;;;;;;;23.67;16.40;;;2.60;96.30;;;;;;5010757;28;20207;-78
2022/03/06 04:40:54;;;;;;;22.97;17.03;;;2.40;96.10;;;;;;5012265;28;20227;-78
2022/03/06 04:43:24;;;;;;;22.67;16.13;;;2.20;96.70;;;;;;5010127;28;20198;-78
2022/03/06 04:45:51;;;;;;;24.10;17.03;;;2.40;97.30;;;;;;5019005;28;20229;-78
2022/03/06 04:48:19;;;;;;;23.17;17.27;;;2.40;97.10;;;;;;5014623;28;20199;-77
2022/03/06 04:50:46;;;;;;;23.43;17.43;;;2.40;96.50;;;;;;5009251;28;20242;-77
2022/03/06 04:53:13;;;;;;;21.30;16.30;;;2.50;96.80;;;;;;5015650;28;20198;-78
2022/03/06 04:55:41;;;;;;;24.03;16.47;;;2.60;96.10;;;;;;5015004;28;20191;-78
2022/03/06 04:58:10;;;;;;;23.70;16.70;;;2.80;96.20;;;;;;5014521;28;20201;-78
2022/03/06 05:00:37;;;;;;;22.80;16.80;;;2.90;95.20;;;;;;5000492;28;20230;-77
2022/03/06 05:03:04;;;;;;;25.17;17.03;;;2.70;95.30;;;;;;5014826;28;20218;-78
2022/03/06 05:05:33;;;;;;;21.90;16.90;;;2.50;95.80;;;;;;5020290;28;20199;-78
2022/03/06 05:08:00;;;;;;;21.27;16.73;;;2.30;95.70;;;;;;5001378;28;20214;-78
2022/03/06 05:10:27;;;;;;;22.73;17.33;;;2.20;96.10;;;;;;5009248;28;20219;-78
2022/03/06 05:12:55;;;;;;;23.53;16.10;;;2.00;96.50;;;;;;5004063;28;20231;-78
2022/03/06 05:15:24;;;;;;;21.93;16.07;;;2.00;96.80;;;;;;5011559;28;20229;-78
2022/03/06 05:17:51;;;;;;;24.53;17.30;;;2.00;96.90;;;;;;5005937;28;20562;-78
2022/03/06 05:20:19;;;;;;;20.97;15.97;;;2.00;97.20;;;;;;5006276;28;20219;-78
2022/03/06 05:22:46;;;;;;;22.07;16.33;;;1.90;97.20;;;;;;5012745;28;20676;-78
2022/03/06 05:25:37;;;;;;;24.60;16.93;;;2.10;97.50;;;;;;5012041;28;20209;-78
2022/03/06 05:28:05;;;;;;;23.77;16.27;;;2.00;97.10;;;;;;5014400;28;20605;-78
2022/03/06 05:30:33;;;;;;;23.87;16.77;;;1.80;97.40;;;;;;5024039;28;20221;-77
2022/03/06 05:33:01;;;;;;;21.70;15.37;;;1.90;97.60;;;;;;5013188;28;20191;-78
2022/03/06 05:35:28;;;;;;;21.67;15.93;;;1.90;97.70;;;;;;5018752;28;20206;-78
2022/03/06 05:37:56;;;;;;;22.37;16.30;;;1.80;97.40;;;;;;5010134;28;20206;-78
2022/03/06 05:40:23;;;;;;;20.10;14.73;;;2.00;97.70;;;;;;5021867;28;20566;-78
2022/03/06 05:42:51;;;;;;;24.03;16.43;;;2.40;96.90;;;;;;5016740;28;20652;-78
2022/03/06 05:45:18;;;;;;;23.07;16.43;;;2.60;96.60;;;;;;5011557;28;20202;-78
2022/03/06 05:47:47;;;;;;;21.10;15.30;;;2.70;95.80;;;;;;5015972;28;20226;-78
2022/03/06 05:50:14;;;;;;;21.70;16.10;;;2.90;95.40;;;;;;5009619;28;20619;-78
2022/03/06 05:52:42;;;;;;;21.23;16.33;;;2.60;95.00;;;;;;5031539;28;20209;-78
2022/03/06 05:55:10;;;;;;;23.03;15.20;;;2.80;95.60;;;;;;5012210;28;20200;-78
2022/03/06 05:57:38;;;;;;;23.37;16.03;;;2.60;95.40;;;;;;5022197;28;20578;-78
2022/03/06 06:00:08;;;;;;;20.33;15.97;;;2.40;95.40;;;;;;5011298;28;20228;-78
2022/03/06 06:02:36;;;;;;;24.30;17.37;;;2.40;95.90;;;;;;5021513;28;20301;-77
2022/03/06 06:05:06;;;;;;;23.07;16.00;;;2.30;95.70;;;;;;5028681;28;20203;-77
2022/03/06 06:07:34;;;;;;;21.20;16.83;;;2.30;95.80;;;;;;5024292;28;20218;-76
2022/03/06 06:10:01;;;;;;;19.63;15.50;;;2.10;96.10;;;;;;5012519;28;20701;-76
2022/03/06 06:12:30;;;;;;;22.23;16.00;;;1.90;96.70;;;;;;5029865;28;20199;-76
2022/03/06 06:14:57;;;;;;;21.87;15.63;;;1.80;97.10;;;;;;5027666;28;20183;-76
2022/03/06 06:17:25;;;;;;;23.27;16.50;;;1.70;97.40;;;;;;5011099;28;20202;-76
2022/03/06 06:19:52;;;;;;;23.30;16.37;;;1.50;98.00;;;;;;5013957;28;20224;-76
2022/03/06 06:22:21;;;;;;;21.03;16.37;;;1.60;98.20;;;;;;5034259;28;20565;-76
2022/03/06 06:24:48;;;;;;;21.63;15.97;;;1.50;97.90;;;;;;5003282;28;20210;-76
2022/03/06 06:27:15;;;;;;;20.50;15.53;;;1.40;98.50;;;;;;5012674;28;20703;-76
2022/03/06 06:29:43;;;;;;;21.10;16.63;;;1.50;98.80;;;;;;5014737;28;20210;-76
2022/03/06 06:32:10;;;;;;;23.50;16.77;;;1.50;98.50;;;;;;5012653;28;20206;-76
2022/03/06 06:34:40;;;;;;;20.33;15.77;;;1.50;98.50;;;;;;5005948;28;20206;-76
2022/03/06 06:37:10;;;;;;;22.90;16.77;;;1.70;99.10;;;;;;5007799;28;20202;-78
2022/03/06 06:39:39;;;;;;;22.30;15.43;;;1.60;98.90;;;;;;5032690;28;20218;-78
2022/03/06 06:42:08;;;;;;;22.07;16.47;;;1.70;98.50;;;;;;5026395;28;20201;-78
2022/03/06 06:44:35;;;;;;;21.10;16.20;;;1.70;98.40;;;;;;5018102;28;20188;-78
2022/03/06 06:47:08;;;;;;;21.67;16.03;;;1.70;98.40;;;;;;5030799;28;20590;-78
2022/03/06 06:49:36;;;;;;;20.13;15.73;;;1.90;98.40;;;;;;4973523;28;1108720;-77
2022/03/06 06:52:04;;;;;;;21.27;15.60;;;1.80;97.90;;;;;;5010465;28;20216;-78
2022/03/06 06:54:31;;;;;;;23.33;16.40;;;1.80;98.10;;;;;;5037241;28;20213;-78
2022/03/06 06:57:01;;;;;;;19.63;15.70;;;1.70;98.70;;;;;;5028685;28;20186;-78
2022/03/06 06:59:28;;;;;;;21.50;16.13;;;1.70;98.90;;;;;;5033878;28;20187;-79
2022/03/06 07:02:02;;;;;;;21.73;15.97;;;1.80;98.80;;;;;;5014657;28;20213;-79
2022/03/06 07:04:29;;;;;;;20.73;16.40;;;1.90;98.60;;;;;;5006525;28;20553;-80
2022/03/06 07:06:57;;;;;;;22.20;16.87;;;1.90;98.10;;;;;;5018893;28;20215;-79
2022/03/06 07:09:28;;;;;;;21.73;16.30;;;2.10;97.70;;;;;;5015114;28;20217;-78
2022/03/06 07:11:56;;;;;;;23.00;16.00;;;2.20;97.70;;;;;;5039832;28;20199;-78
2022/03/06 07:14:25;;;;;;;21.13;16.23;;;2.20;97.40;;;;;;5009514;28;20653;-78
2022/03/06 07:16:52;;;;;;;20.03;15.03;;;2.20;97.10;;;;;;5006246;28;20653;-80
2022/03/06 07:19:19;;;;;;;20.03;15.40;;;2.50;97.60;;;;;;5021074;28;20226;-78
2022/03/06 07:21:50;;;;;;;20.53;15.60;;;2.90;96.60;;;;;;5017485;28;20223;-79
2022/03/06 07:24:18;;;;;;;23.93;16.63;;;2.90;96.00;;;;;;5019049;28;20691;-78
2022/03/06 07:26:52;;;;;;;20.47;16.87;;;2.80;95.40;;;;;;5043972;28;20704;-78
2022/03/06 07:29:19;;;;;;;20.27;15.87;;;2.80;95.40;;;;;;5024088;28;20195;-79
2022/03/06 07:31:48;;;;;;;19.97;15.73;;;2.90;95.50;;;;;;5025773;28;20246;-79
2022/03/06 07:34:15;;;;;;;19.40;15.57;;;3.00;95.40;;;;;;5026137;28;20199;-79
2022/03/06 07:36:43;;;;;;;21.40;15.77;;;2.80;95.20;;;;;;5033115;28;20203;-79
2022/03/06 07:39:10;;;;;;;20.47;15.87;;;2.90;96.00;;;;;;5021578;28;20200;-79
2022/03/06 07:41:38;;;;;;;21.53;15.93;;;2.90;95.40;;;;;;5025420;28;20672;-79
2022/03/06 07:44:05;;;;;;;22.97;16.47;;;2.80;95.60;;;;;;5026706;28;20204;-78
2022/03/06 07:46:34;;;;;;;21.73;16.33;;;2.80;96.00;;;;;;5019928;28;20207;-78
2022/03/06 07:49:03;;;;;;;22.93;16.73;;;2.70;96.40;;;;;;5016976;28;20218;-79
2022/03/06 07:51:31;;;;;;;21.53;15.20;;;2.70;96.30;;;;;;5000465;28;20235;-79
2022/03/06 07:53:58;;;;;;;20.87;16.43;;;3.10;96.40;;;;;;5014783;28;20677;-79
2022/03/06 07:56:26;;;;;;;21.60;16.33;;;3.20;96.10;;;;;;5037014;28;20194;-79
2022/03/06 07:58:53;;;;;;;20.53;16.10;;;3.30;95.60;;;;;;5018265;28;20191;-79
2022/03/06 08:01:22;;;;;;;20.93;15.40;;;3.30;95.70;;;;;;5035702;28;20213;-78
2022/03/06 08:03:52;;;;;;;18.87;15.47;;;3.10;95.60;;;;;;5018798;28;20193;-79
2022/03/06 08:06:22;;;;;;;20.87;16.20;;;3.10;95.70;;;;;;5038166;28;21684;-78
2022/03/06 08:08:50;;;;;;;23.83;15.83;;;3.00;96.10;;;;;;5013080;28;20222;-78
2022/03/06 08:11:17;;;;;;;19.40;15.57;;;3.30;96.10;;;;;;5014801;28;20713;-78
2022/03/06 08:13:45;;;;;;;17.93;15.07;;;3.60;95.90;;;;;;5014057;28;20200;-78
2022/03/06 08:16:13;;;;;;;20.67;15.23;;;3.80;95.40;;;;;;5016082;28;20211;-79
2022/03/06 08:18:41;;;;;;;18.23;15.20;;;3.80;94.70;;;;;;5017824;28;20207;-79
2022/03/06 08:21:09;;;;;;;21.43;16.53;;;3.90;95.20;;;;;;5034091;28;21151;-78
2022/03/06 08:23:37;;;;;;;21.17;16.37;;;4.00;94.40;;;;;;5022833;28;20211;-78
2022/03/06 08:26:05;;;;;;;18.97;15.13;;;3.80;94.40;;;;;;5021466;28;20208;-78
2022/03/06 08:28:32;;;;;;;19.47;15.67;;;3.90;94.50;;;;;;5036436;28;20211;-78
2022/03/06 08:31:00;;;;;;;18.37;15.37;;;3.80;94.30;;;;;;5028789;28;20226;-77
2022/03/06 08:33:27;;;;;;;18.97;15.30;;;4.00;94.50;;;;;;5034579;28;20199;-78
2022/03/06 08:35:55;;;;;;;19.93;15.83;;;4.10;94.20;;;;;;5021589;28;20210;-78
2022/03/06 08:38:22;;;;;;;19.70;16.17;;;4.10;93.90;;;;;;5025179;28;20205;-78
2022/03/06 08:40:51;;;;;;;17.77;14.67;;;4.10;93.90;;;;;;5025318;28;20219;-78
2022/03/06 08:43:18;;;;;;;23.47;16.10;;;4.10;93.40;;;;;;5023969;28;20206;-78
2022/03/06 08:45:50;;;;;;;19.00;15.20;;;3.90;93.90;;;;;;5029706;28;20215;-78
2022/03/06 08:48:17;;;;;;;21.50;16.43;;;4.00;94.10;;;;;;5023364;28;20206;-77
2022/03/06 08:50:44;;;;;;;20.17;15.43;;;4.20;93.90;;;;;;5006869;28;20231;-78
2022/03/06 08:53:12;;;;;;;19.83;16.03;;;4.10;94.00;;;;;;5012540;28;20639;-78
2022/03/06 08:55:39;;;;;;;20.87;15.40;;;4.40;94.00;;;;;;5014206;28;20195;-78
2022/03/06 08:58:09;;;;;;;19.73;15.20;;;4.60;93.60;;;;;;5017424;28;20199;-78
2022/03/06 09:00:36;;;;;;;18.63;15.70;;;4.60;92.90;;;;;;5024890;28;20701;-77
2022/03/06 09:03:09;;;;;;;19.97;15.27;;;4.60;92.90;;;;;;5040853;28;20188;-78
2022/03/06 09:05:40;;;;;;;18.13;15.33;;;4.70;92.90;;;;;;5022749;28;20204;-78
2022/03/06 09:08:09;;;;;;;18.57;14.90;;;4.80;92.40;;;;;;5008248;28;20235;-78
2022/03/06 09:10:37;;;;;;;20.07;15.83;;;4.90;92.40;;;;;;5015051;28;20236;-78
2022/03/06 09:13:06;;;;;;;21.33;16.70;;;5.10;92.20;;;;;;5022714;28;20205;-78
2022/03/06 09:15:39;;;;;;;17.77;15.83;;;5.10;91.90;;;;;;5028407;28;20209;-78
2022/03/06 09:18:07;;;;;;;19.83;15.87;;;5.20;91.60;;;;;;5038847;28;20199;-78
2022/03/06 09:20:34;;;;;;;20.83;16.13;;;5.20;91.70;;;;;;5016968;28;20239;-78
2022/03/06 09:23:03;;;;;;;20.93;16.57;;;5.30;91.40;;;;;;5011954;28;20209;-78
2022/03/06 09:25:32;;;;;;;19.47;15.43;;;5.10;91.40;;;;;;5007658;28;20201;-79
2022/03/06 09:28:00;;;;;;;18.67;15.50;;;5.30;91.60;;;;;;5029765;28;20701;-78
2022/03/06 09:30:29;;;;;;;19.00;14.87;;;4.90;91.40;;;;;;5017616;28;20229;-78
2022/03/06 09:33:00;;;;;;;19.00;15.80;;;4.60;91.60;;;;;;5010446;28;20207;-78
2022/03/06 09:35:30;;;;;;;19.30;15.37;;;5.00;91.80;;;;;;5023194;28;20196;-78
2022/03/06 09:37:59;;;;;;;20.73;15.77;;;5.40;91.50;;;;;;5019825;28;20206;-78
2022/03/06 09:40:26;;;;;;;19.10;16.37;;;5.50;90.70;;;;;;5013141;28;20313;-78
2022/03/06 09:42:54;;;;;;;18.00;15.47;;;5.60;91.00;;;;;;5022767;28;20217;-78
2022/03/06 09:45:23;;;;;;;20.63;16.27;;;5.50;90.20;;;;;;5021550;28;20199;-78
2022/03/06 09:47:52;;;;;;;20.17;16.17;;;5.40;90.40;;;;;;5020653;28;20201;-78
2022/03/06 09:50:21;;;;;;;19.10;15.73;;;5.50;90.50;;;;;;5014009;28;20245;-78
2022/03/06 09:52:49;;;;;;;17.57;15.27;;;5.60;90.20;;;;;;5016009;28;20691;-78
2022/03/06 09:55:16;;;;;;;18.47;15.30;;;5.90;90.00;;;;;;5023067;28;20206;-78
2022/03/06 09:57:46;;;;;;;18.13;15.43;;;5.90;88.20;;;;;;5007091;28;20207;-78
2022/03/06 10:00:15;;;;;;;19.17;15.20;;;5.90;88.70;;;;;;5005592;28;20222;-78
2022/03/06 10:02:57;;;;;;;17.60;14.57;;;6.00;88.40;;;;;;5012459;28;20659;-78
2022/03/06 10:05:32;;;;;;;17.70;14.07;;;6.20;88.30;;;;;;5012566;28;20212;-78
2022/03/06 10:08:17;;;;;;;16.67;13.83;;;6.40;87.60;;;;;;5017196;28;20219;-78
2022/03/06 10:10:46;;;;;;;17.63;14.63;;;6.10;85.80;;;;;;5015950;28;20226;-78
2022/03/06 10:13:32;;;;;;;16.23;14.50;;;6.20;85.40;;;;;;5025789;28;20546;-78
2022/03/06 10:16:14;;;;;;;16.33;14.60;;;6.20;85.00;;;;;;5013809;28;20209;-78
2022/03/06 10:18:44;;;;;;;18.53;15.23;;;6.10;85.00;;;;;;5014600;28;20201;-77
2022/03/06 10:21:15;;;;;;;18.33;15.83;;;6.20;85.70;;;;;;5019304;28;20240;-78
2022/03/06 10:23:44;;;;;;;17.70;15.10;;;6.30;86.00;;;;;;5005494;28;20210;-77
2022/03/06 10:26:14;;;;;;;17.70;14.60;;;6.30;86.50;;;;;;5025043;28;20196;-77
2022/03/06 10:28:47;;;;;;;20.33;15.70;;;6.70;86.10;;;;;;5012821;28;20219;-77
2022/03/06 10:31:16;;;;;;;17.07;14.83;;;6.80;85.30;;;;;;5032108;28;20226;-77
2022/03/06 10:33:59;;;;;;;19.00;15.73;;;7.00;85.60;;;;;;5019251;28;20712;-77
2022/03/06 10:36:39;;;;;;;16.23;14.10;;;7.40;84.50;;;;;;5026660;28;20200;-77
2022/03/06 10:39:13;;;;;;;18.77;14.83;;;7.40;83.20;;;;;;5008061;28;20206;-76
2022/03/06 10:41:42;;;;;;;17.53;14.87;;;7.50;81.70;;;;;;5003227;28;20234;-76
2022/03/06 10:44:11;;;;;;;17.10;13.87;;;7.20;83.80;;;;;;5036521;28;20187;-77
2022/03/06 10:46:39;;;;;;;15.80;13.93;;;7.40;80.80;;;;;;5004526;28;20211;-77
2022/03/06 10:49:12;;;;;;;17.67;14.87;;;7.60;79.70;;;;;;5025550;28;20226;-77
2022/03/06 10:51:43;;;;;;;15.90;14.10;;;7.50;78.40;;;;;;5022276;28;20234;-77
2022/03/06 10:54:13;;;;;;;18.47;14.07;;;7.50;78.80;;;;;;5031655;28;20198;-77
2022/03/06 10:56:42;;;;;;;16.57;14.30;;;7.70;77.80;;;;;;5013534;28;20553;-77
2022/03/06 10:59:20;;;;;;;16.43;14.43;;;7.90;76.60;;;;;;5027233;28;20203;-77
2022/03/06 11:01:48;;;;;;;15.73;14.13;;;8.30;76.30;;;;;;5030048;28;20222;-78
2022/03/06 11:04:18;;;;;;;16.27;14.17;;;8.20;73.20;;;;;;5021957;28;20801;-77
2022/03/06 11:06:56;;;;;;;15.10;13.30;;;7.40;75.30;;;;;;5007933;28;20231;-78
2022/03/06 11:09:24;;;;;;;15.10;13.50;;;8.10;75.80;;;;;;5016109;28;20206;-78
2022/03/06 11:11:52;;;;;;;15.23;13.63;;;7.80;73.50;;;;;;5010760;28;20224;-78
2022/03/06 11:14:20;;;;;;;15.07;13.23;;;8.40;73.40;;;;;;5016823;28;20211;-78
2022/03/06 11:16:48;;;;;;;14.70;13.27;;;8.80;70.40;;;;;;5011429;28;20220;-78
2022/03/06 11:19:15;;;;;;;14.90;13.37;;;8.60;69.70;;;;;;5035389;28;20194;-78
2022/03/06 11:21:45;;;;;;;15.70;14.10;;;8.90;68.90;;;;;;5030837;28;20234;-78
2022/03/06 11:24:17;;;;;;;15.60;14.10;;;9.00;67.20;;;;;;5019976;28;20210;-78
2022/03/06 11:27:10;;;;;;;15.07;13.23;;;8.70;65.80;;;;;;5014806;28;20198;-78
2022/03/06 11:29:54;;;;;;;14.97;13.23;;;8.80;66.10;;;;;;5009263;28;20223;-78
2022/03/06 11:32:27;;;;;;;15.30;13.70;;;8.50;65.00;;;;;;5012075;28;20207;-78
2022/03/06 11:35:03;;;;;;;16.10;14.40;;;8.40;65.70;;;;;;5033656;28;20190;-78
2022/03/06 11:37:46;;;;;;;16.33;13.90;;;8.10;65.30;;;;;;5011854;28;20576;-78
2022/03/06 11:40:49;;;;;;;16.70;14.80;;;7.80;65.60;;;;;;5008780;28;20242;-79
2022/03/06 11:43:36;;;;;;;16.13;14.40;;;7.60;66.30;;;;;;5013299;28;20652;-79
2022/03/06 11:46:12;;;;;;;15.23;13.63;;;7.30;66.10;;;;;;5007657;28;20211;-79
2022/03/06 11:49:05;;;;;;;16.43;14.70;;;7.50;67.70;;;;;;5024537;28;20199;-79
2022/03/06 11:51:34;;;;;;;17.23;13.63;;;7.30;66.00;;;;;;5011211;28;20231;-79
2022/03/06 11:54:05;;;;;;;15.73;14.03;;;7.40;66.10;;;;;;5014361;28;20211;-80
2022/03/06 11:56:51;;;;;;;16.40;14.67;;;7.40;66.10;;;;;;5011809;28;20700;-77
2022/03/06 11:59:31;;;;;;;16.80;13.90;;;7.60;66.40;;;;;;5002704;28;20202;-78
2022/03/06 12:02:03;;;;;;;14.33;12.83;;;7.60;63.70;;;;;;5008150;28;20195;-78
2022/03/06 12:04:36;;;;;;;14.87;13.27;;;7.40;62.00;;;;;;5011784;28;20230;-78
2022/03/06 12:07:05;;;;;;;15.23;13.57;;;7.50;61.80;;;;;;5010110;28;20200;-79
2022/03/06 12:09:34;;;;;;;17.03;13.23;;;7.80;62.20;;;;;;5012946;28;20241;-78
2022/03/06 12:12:03;;;;;;;14.33;12.83;;;8.00;59.90;;;;;;5016085;28;20202;-78
2022/03/06 12:14:36;;;;;;;14.07;12.67;;;8.20;59.40;;;;;;5010684;28;20291;-78
2022/03/06 12:17:22;;;;;;;14.63;12.80;;;8.50;59.20;;;;;;5033804;28;20210;-78
2022/03/06 12:20:27;;;;;;;15.43;13.67;;;9.40;57.90;;;;;;5009983;28;20209;-78
2022/03/06 12:23:03;;;;;;;15.63;13.97;;;9.00;59.40;;;;;;5005672;28;20576;-78
2022/03/06 12:25:39;;;;;;;16.93;15.27;;;9.80;56.30;;;;;;5016422;28;20198;-78
2022/03/06 12:28:31;;;;;;;14.43;12.93;;;10.10;53.90;;;;;;5006553;28;20206;-78
2022/03/06 12:31:40;;;;;;;16.20;13.60;;;9.90;53.90;;;;;;5014764;28;20222;-78
2022/03/06 12:34:38;;;;;;;14.97;13.37;;;10.30;53.00;;;;;;5014159;28;20203;-78
2022/03/06 12:37:06;;;;;;;14.17;12.67;;;10.40;52.20;;;;;;5013998;28;20195;-78
2022/03/06 12:39:37;;;;;;;14.27;12.77;;;9.50;53.80;;;;;;5019995;28;20203;-78
2022/03/06 12:42:06;;;;;;;14.27;12.77;;;9.70;54.00;;;;;;5006493;28;20195;-78
2022/03/06 12:44:37;;;;;;;14.77;13.27;;;9.10;53.70;;;;;;5013331;28;20535;-78
2022/03/06 12:47:05;;;;;;;15.60;13.90;;;9.30;54.70;;;;;;5020025;28;20214;-78
2022/03/06 12:49:35;;;;;;;15.00;13.43;;;9.50;54.70;;;;;;5012349;28;20219;-79